sensor_id;sensor_type;location;lat;lon;timestamp;P1;durP1;ratioP1;P2;durP2;ratioP2
80229;SDS011;69540;42.136;24.742;2024-03-06T00:00:07;18.40;;;13.75;;
80229;SDS011;69540;42.136;24.742;2024-03-06T00:02:34;19.70;;;14.10;;
80229;SDS011;69540;42.136;24.742;2024-03-06T00:05:02;18.60;;;13.32;;
80229;SDS011;69540;42.136;24.742;2024-03-06T00:07:29;18.38;;;13.60;;
80229;SDS011;69540;42.136;24.742;2024-03-06T00:09:55;19.88;;;14.20;;
80229;SDS011;69540;42.136;24.742;2024-03-06T00:12:20;19.20;;;13.45;;
80229;SDS011;69540;42.136;24.742;2024-03-06T00:14:46;17.52;;;13.20;;
80229;SDS011;69540;42.136;24.742;2024-03-06T00:17:13;18.38;;;13.18;;
80229;SDS011;69540;42.136;24.742;2024-03-06T00:19:38;20.15;;;14.00;;
80229;SDS011;69540;42.136;24.742;2024-03-06T00:22:04;19.10;;;14.40;;
80229;SDS011;69540;42.136;24.742;2024-03-06T00:24:30;20.38;;;15.15;;
80229;SDS011;69540;42.136;24.742;2024-03-06T00:26:57;19.30;;;14.18;;
80229;SDS011;69540;42.136;24.742;2024-03-06T00:29:23;19.38;;;14.02;;
80229;SDS011;69540;42.136;24.742;2024-03-06T00:31:49;19.48;;;14.23;;
80229;SDS011;69540;42.136;24.742;2024-03-06T00:34:14;20.30;;;14.95;;
80229;SDS011;69540;42.136;24.742;2024-03-06T00:36:41;19.45;;;14.50;;
80229;SDS011;69540;42.136;24.742;2024-03-06T00:39:08;20.73;;;15.15;;
80229;SDS011;69540;42.136;24.742;2024-03-06T00:41:34;19.80;;;14.20;;
80229;SDS011;69540;42.136;24.742;2024-03-06T00:44:01;21.52;;;14.98;;
80229;SDS011;69540;42.136;24.742;2024-03-06T00:46:27;19.80;;;14.18;;
80229;SDS011;69540;42.136;24.742;2024-03-06T00:48:53;23.08;;;14.77;;
80229;SDS011;69540;42.136;24.742;2024-03-06T00:51:18;20.60;;;14.07;;
80229;SDS011;69540;42.136;24.742;2024-03-06T00:53:44;19.55;;;14.35;;
80229;SDS011;69540;42.136;24.742;2024-03-06T00:56:10;21.23;;;15.35;;
80229;SDS011;69540;42.136;24.742;2024-03-06T00:58:36;22.15;;;15.52;;
80229;SDS011;69540;42.136;24.742;2024-03-06T01:01:02;22.30;;;16.20;;
80229;SDS011;69540;42.136;24.742;2024-03-06T01:03:28;24.33;;;16.90;;
80229;SDS011;69540;42.136;24.742;2024-03-06T01:05:53;23.55;;;16.33;;
80229;SDS011;69540;42.136;24.742;2024-03-06T01:08:20;24.88;;;16.50;;
80229;SDS011;69540;42.136;24.742;2024-03-06T01:10:46;25.25;;;17.25;;
80229;SDS011;69540;42.136;24.742;2024-03-06T01:13:12;23.85;;;17.52;;
80229;SDS011;69540;42.136;24.742;2024-03-06T01:15:38;24.58;;;17.42;;
80229;SDS011;69540;42.136;24.742;2024-03-06T01:18:04;26.13;;;18.48;;
80229;SDS011;69540;42.136;24.742;2024-03-06T01:20:30;28.52;;;19.77;;
80229;SDS011;69540;42.136;24.742;2024-03-06T01:22:56;27.90;;;18.58;;
80229;SDS011;69540;42.136;24.742;2024-03-06T01:25:22;24.88;;;17.73;;
80229;SDS011;69540;42.136;24.742;2024-03-06T01:27:48;24.75;;;16.58;;
80229;SDS011;69540;42.136;24.742;2024-03-06T01:30:14;24.52;;;17.48;;
80229;SDS011;69540;42.136;24.742;2024-03-06T01:32:40;22.88;;;17.05;;
80229;SDS011;69540;42.136;24.742;2024-03-06T01:35:06;25.65;;;18.05;;
80229;SDS011;69540;42.136;24.742;2024-03-06T01:37:32;21.70;;;15.98;;
80229;SDS011;69540;42.136;24.742;2024-03-06T01:39:58;22.98;;;16.63;;
80229;SDS011;69540;42.136;24.742;2024-03-06T01:42:24;24.15;;;16.33;;
80229;SDS011;69540;42.136;24.742;2024-03-06T01:44:49;20.10;;;15.10;;
80229;SDS011;69540;42.136;24.742;2024-03-06T01:47:15;23.05;;;16.13;;
80229;SDS011;69540;42.136;24.742;2024-03-06T01:49:41;24.52;;;16.30;;
80229;SDS011;69540;42.136;24.742;2024-03-06T01:52:08;20.13;;;15.57;;
80229;SDS011;69540;42.136;24.742;2024-03-06T01:54:38;21.20;;;16.35;;
80229;SDS011;69540;42.136;24.742;2024-03-06T01:57:04;22.42;;;16.05;;
80229;SDS011;69540;42.136;24.742;2024-03-06T01:59:32;23.90;;;16.65;;
80229;SDS011;69540;42.136;24.742;2024-03-06T02:01:59;23.67;;;16.60;;
80229;SDS011;69540;42.136;24.742;2024-03-06T02:04:28;23.40;;;16.20;;
80229;SDS011;69540;42.136;24.742;2024-03-06T02:06:55;21.25;;;15.20;;
80229;SDS011;69540;42.136;24.742;2024-03-06T02:09:22;20.83;;;15.65;;
80229;SDS011;69540;42.136;24.742;2024-03-06T02:11:48;22.67;;;17.48;;
80229;SDS011;69540;42.136;24.742;2024-03-06T02:14:15;24.85;;;17.70;;
80229;SDS011;69540;42.136;24.742;2024-03-06T02:16:41;23.13;;;17.45;;
80229;SDS011;69540;42.136;24.742;2024-03-06T02:19:07;23.25;;;16.30;;
80229;SDS011;69540;42.136;24.742;2024-03-06T02:21:33;22.38;;;15.98;;
80229;SDS011;69540;42.136;24.742;2024-03-06T02:24:00;21.27;;;16.35;;
80229;SDS011;69540;42.136;24.742;2024-03-06T02:26:26;25.30;;;17.00;;
80229;SDS011;69540;42.136;24.742;2024-03-06T02:28:52;23.92;;;15.75;;
80229;SDS011;69540;42.136;24.742;2024-03-06T02:31:19;23.08;;;16.35;;
80229;SDS011;69540;42.136;24.742;2024-03-06T02:33:47;23.20;;;16.13;;
80229;SDS011;69540;42.136;24.742;2024-03-06T02:36:13;22.92;;;16.25;;
80229;SDS011;69540;42.136;24.742;2024-03-06T02:38:39;24.88;;;18.10;;
80229;SDS011;69540;42.136;24.742;2024-03-06T02:41:05;19.63;;;15.98;;
80229;SDS011;69540;42.136;24.742;2024-03-06T02:43:32;24.35;;;16.58;;
80229;SDS011;69540;42.136;24.742;2024-03-06T02:45:58;23.98;;;16.67;;
80229;SDS011;69540;42.136;24.742;2024-03-06T02:48:24;21.45;;;16.00;;
80229;SDS011;69540;42.136;24.742;2024-03-06T02:50:50;23.50;;;16.83;;
80229;SDS011;69540;42.136;24.742;2024-03-06T02:53:15;22.58;;;16.08;;
80229;SDS011;69540;42.136;24.742;2024-03-06T02:55:41;18.65;;;14.80;;
80229;SDS011;69540;42.136;24.742;2024-03-06T02:58:07;20.70;;;15.60;;
80229;SDS011;69540;42.136;24.742;2024-03-06T03:00:33;19.27;;;15.07;;
80229;SDS011;69540;42.136;24.742;2024-03-06T03:02:58;18.77;;;13.73;;
80229;SDS011;69540;42.136;24.742;2024-03-06T03:05:24;18.50;;;14.27;;
80229;SDS011;69540;42.136;24.742;2024-03-06T03:07:50;18.80;;;14.20;;
80229;SDS011;69540;42.136;24.742;2024-03-06T03:10:16;17.02;;;13.50;;
80229;SDS011;69540;42.136;24.742;2024-03-06T03:12:42;21.40;;;14.90;;
80229;SDS011;69540;42.136;24.742;2024-03-06T03:15:08;19.33;;;14.82;;
80229;SDS011;69540;42.136;24.742;2024-03-06T03:17:34;17.67;;;13.73;;
80229;SDS011;69540;42.136;24.742;2024-03-06T03:20:01;19.65;;;15.25;;
80229;SDS011;69540;42.136;24.742;2024-03-06T03:22:43;19.30;;;14.50;;
80229;SDS011;69540;42.136;24.742;2024-03-06T03:25:09;19.33;;;14.77;;
80229;SDS011;69540;42.136;24.742;2024-03-06T03:27:37;19.73;;;14.90;;
80229;SDS011;69540;42.136;24.742;2024-03-06T03:30:07;20.65;;;14.15;;
80229;SDS011;69540;42.136;24.742;2024-03-06T03:32:36;18.70;;;14.27;;
80229;SDS011;69540;42.136;24.742;2024-03-06T03:35:03;19.23;;;14.77;;
80229;SDS011;69540;42.136;24.742;2024-03-06T03:37:32;18.23;;;14.80;;
80229;SDS011;69540;42.136;24.742;2024-03-06T03:39:58;21.17;;;14.90;;
80229;SDS011;69540;42.136;24.742;2024-03-06T03:42:24;18.60;;;14.52;;
80229;SDS011;69540;42.136;24.742;2024-03-06T03:44:50;19.65;;;14.88;;
80229;SDS011;69540;42.136;24.742;2024-03-06T03:47:15;19.58;;;14.65;;
80229;SDS011;69540;42.136;24.742;2024-03-06T03:49:41;19.17;;;13.85;;
80229;SDS011;69540;42.136;24.742;2024-03-06T03:52:07;18.70;;;14.52;;
80229;SDS011;69540;42.136;24.742;2024-03-06T03:54:33;17.80;;;13.65;;
80229;SDS011;69540;42.136;24.742;2024-03-06T03:57:00;17.85;;;14.02;;
80229;SDS011;69540;42.136;24.742;2024-03-06T03:59:25;18.65;;;14.70;;
80229;SDS011;69540;42.136;24.742;2024-03-06T04:01:51;19.17;;;14.75;;
80229;SDS011;69540;42.136;24.742;2024-03-06T04:04:17;20.67;;;15.05;;
80229;SDS011;69540;42.136;24.742;2024-03-06T04:06:43;18.88;;;14.70;;
80229;SDS011;69540;42.136;24.742;2024-03-06T04:09:09;19.60;;;14.52;;
80229;SDS011;69540;42.136;24.742;2024-03-06T04:11:39;20.52;;;14.80;;
80229;SDS011;69540;42.136;24.742;2024-03-06T04:14:05;19.15;;;14.23;;
80229;SDS011;69540;42.136;24.742;2024-03-06T04:16:32;17.98;;;14.02;;
80229;SDS011;69540;42.136;24.742;2024-03-06T04:19:01;17.95;;;14.40;;
80229;SDS011;69540;42.136;24.742;2024-03-06T04:21:27;18.45;;;14.05;;
80229;SDS011;69540;42.136;24.742;2024-03-06T04:23:52;18.48;;;13.52;;
80229;SDS011;69540;42.136;24.742;2024-03-06T04:26:18;17.15;;;13.25;;
80229;SDS011;69540;42.136;24.742;2024-03-06T04:28:44;15.38;;;12.43;;
80229;SDS011;69540;42.136;24.742;2024-03-06T04:31:10;17.23;;;13.13;;
80229;SDS011;69540;42.136;24.742;2024-03-06T04:33:35;16.55;;;12.52;;
80229;SDS011;69540;42.136;24.742;2024-03-06T04:36:02;15.48;;;11.95;;
80229;SDS011;69540;42.136;24.742;2024-03-06T04:38:30;17.30;;;11.10;;
80229;SDS011;69540;42.136;24.742;2024-03-06T04:40:56;15.02;;;12.00;;
80229;SDS011;69540;42.136;24.742;2024-03-06T04:43:22;15.48;;;11.45;;
80229;SDS011;69540;42.136;24.742;2024-03-06T04:45:47;14.52;;;11.07;;
80229;SDS011;69540;42.136;24.742;2024-03-06T04:48:13;13.65;;;10.88;;
80229;SDS011;69540;42.136;24.742;2024-03-06T04:50:39;12.25;;;10.88;;
80229;SDS011;69540;42.136;24.742;2024-03-06T04:53:04;14.32;;;10.60;;
80229;SDS011;69540;42.136;24.742;2024-03-06T04:55:30;13.00;;;10.75;;
80229;SDS011;69540;42.136;24.742;2024-03-06T04:57:56;13.18;;;9.90;;
80229;SDS011;69540;42.136;24.742;2024-03-06T05:00:21;12.88;;;9.52;;
80229;SDS011;69540;42.136;24.742;2024-03-06T05:02:48;12.50;;;9.63;;
80229;SDS011;69540;42.136;24.742;2024-03-06T05:05:16;12.38;;;9.70;;
80229;SDS011;69540;42.136;24.742;2024-03-06T05:07:44;12.80;;;9.48;;
80229;SDS011;69540;42.136;24.742;2024-03-06T05:10:10;11.50;;;9.77;;
80229;SDS011;69540;42.136;24.742;2024-03-06T05:12:36;12.52;;;9.80;;
80229;SDS011;69540;42.136;24.742;2024-03-06T05:15:02;10.55;;;9.45;;
80229;SDS011;69540;42.136;24.742;2024-03-06T05:17:28;10.57;;;8.80;;
80229;SDS011;69540;42.136;24.742;2024-03-06T05:19:54;11.93;;;9.52;;
80229;SDS011;69540;42.136;24.742;2024-03-06T05:22:19;10.90;;;8.70;;
80229;SDS011;69540;42.136;24.742;2024-03-06T05:24:46;13.10;;;9.30;;
80229;SDS011;69540;42.136;24.742;2024-03-06T05:27:12;12.45;;;8.85;;
80229;SDS011;69540;42.136;24.742;2024-03-06T05:29:41;11.35;;;9.10;;
80229;SDS011;69540;42.136;24.742;2024-03-06T05:32:07;12.38;;;9.00;;
80229;SDS011;69540;42.136;24.742;2024-03-06T05:34:33;11.18;;;8.75;;
80229;SDS011;69540;42.136;24.742;2024-03-06T05:36:59;12.70;;;9.98;;
80229;SDS011;69540;42.136;24.742;2024-03-06T05:39:26;11.95;;;9.68;;
80229;SDS011;69540;42.136;24.742;2024-03-06T05:41:54;13.48;;;9.88;;
80229;SDS011;69540;42.136;24.742;2024-03-06T05:44:21;11.00;;;9.70;;
80229;SDS011;69540;42.136;24.742;2024-03-06T05:46:46;13.10;;;11.00;;
80229;SDS011;69540;42.136;24.742;2024-03-06T05:49:13;12.27;;;10.38;;
80229;SDS011;69540;42.136;24.742;2024-03-06T05:51:39;12.15;;;9.30;;
80229;SDS011;69540;42.136;24.742;2024-03-06T05:54:05;11.25;;;9.50;;
80229;SDS011;69540;42.136;24.742;2024-03-06T05:56:33;11.73;;;9.35;;
80229;SDS011;69540;42.136;24.742;2024-03-06T05:58:59;12.93;;;9.75;;
80229;SDS011;69540;42.136;24.742;2024-03-06T06:01:29;12.13;;;9.57;;
80229;SDS011;69540;42.136;24.742;2024-03-06T06:03:56;10.38;;;9.15;;
80229;SDS011;69540;42.136;24.742;2024-03-06T06:06:21;11.68;;;9.85;;
80229;SDS011;69540;42.136;24.742;2024-03-06T06:08:47;11.05;;;8.75;;
80229;SDS011;69540;42.136;24.742;2024-03-06T06:11:13;11.60;;;8.90;;
80229;SDS011;69540;42.136;24.742;2024-03-06T06:13:39;10.43;;;8.63;;
80229;SDS011;69540;42.136;24.742;2024-03-06T06:16:05;10.40;;;8.27;;
80229;SDS011;69540;42.136;24.742;2024-03-06T06:18:31;10.50;;;8.68;;
80229;SDS011;69540;42.136;24.742;2024-03-06T06:20:57;10.32;;;8.40;;
80229;SDS011;69540;42.136;24.742;2024-03-06T06:23:23;11.68;;;9.15;;
80229;SDS011;69540;42.136;24.742;2024-03-06T06:25:49;9.57;;;8.15;;
80229;SDS011;69540;42.136;24.742;2024-03-06T06:28:15;9.80;;;8.52;;
80229;SDS011;69540;42.136;24.742;2024-03-06T06:30:40;9.70;;;7.75;;
80229;SDS011;69540;42.136;24.742;2024-03-06T06:33:06;12.07;;;8.55;;
80229;SDS011;69540;42.136;24.742;2024-03-06T06:35:33;10.52;;;7.88;;
80229;SDS011;69540;42.136;24.742;2024-03-06T06:37:59;9.57;;;7.95;;
80229;SDS011;69540;42.136;24.742;2024-03-06T06:40:25;9.60;;;7.97;;
80229;SDS011;69540;42.136;24.742;2024-03-06T06:42:53;10.98;;;8.30;;
80229;SDS011;69540;42.136;24.742;2024-03-06T06:45:19;10.23;;;7.47;;
80229;SDS011;69540;42.136;24.742;2024-03-06T06:47:46;9.25;;;7.72;;
80229;SDS011;69540;42.136;24.742;2024-03-06T06:50:13;9.23;;;7.88;;
80229;SDS011;69540;42.136;24.742;2024-03-06T06:52:38;8.48;;;7.38;;
80229;SDS011;69540;42.136;24.742;2024-03-06T06:55:04;10.02;;;8.02;;
80229;SDS011;69540;42.136;24.742;2024-03-06T06:57:31;9.68;;;7.97;;
80229;SDS011;69540;42.136;24.742;2024-03-06T06:59:58;10.48;;;8.23;;
80229;SDS011;69540;42.136;24.742;2024-03-06T07:02:24;9.40;;;7.68;;
80229;SDS011;69540;42.136;24.742;2024-03-06T07:04:50;9.63;;;7.63;;
80229;SDS011;69540;42.136;24.742;2024-03-06T07:07:17;9.63;;;8.18;;
80229;SDS011;69540;42.136;24.742;2024-03-06T07:09:43;10.32;;;8.07;;
80229;SDS011;69540;42.136;24.742;2024-03-06T07:12:08;11.75;;;8.90;;
80229;SDS011;69540;42.136;24.742;2024-03-06T07:14:34;10.75;;;8.02;;
80229;SDS011;69540;42.136;24.742;2024-03-06T07:17:00;9.27;;;7.10;;
80229;SDS011;69540;42.136;24.742;2024-03-06T07:19:26;8.45;;;7.47;;
80229;SDS011;69540;42.136;24.742;2024-03-06T07:21:52;8.95;;;7.38;;
80229;SDS011;69540;42.136;24.742;2024-03-06T07:24:18;8.57;;;7.68;;
80229;SDS011;69540;42.136;24.742;2024-03-06T07:26:44;9.60;;;7.63;;
80229;SDS011;69540;42.136;24.742;2024-03-06T07:29:10;9.57;;;7.97;;
80229;SDS011;69540;42.136;24.742;2024-03-06T07:31:43;11.05;;;7.05;;
80229;SDS011;69540;42.136;24.742;2024-03-06T07:34:09;7.90;;;6.90;;
80229;SDS011;69540;42.136;24.742;2024-03-06T07:36:35;8.23;;;6.82;;
80229;SDS011;69540;42.136;24.742;2024-03-06T07:39:01;7.20;;;6.32;;
80229;SDS011;69540;42.136;24.742;2024-03-06T07:41:28;8.30;;;6.00;;
80229;SDS011;69540;42.136;24.742;2024-03-06T07:43:54;7.72;;;6.32;;
80229;SDS011;69540;42.136;24.742;2024-03-06T07:46:20;7.70;;;6.10;;
80229;SDS011;69540;42.136;24.742;2024-03-06T07:48:46;6.32;;;5.72;;
80229;SDS011;69540;42.136;24.742;2024-03-06T07:51:11;6.18;;;5.57;;
80229;SDS011;69540;42.136;24.742;2024-03-06T07:53:37;5.90;;;5.03;;
80229;SDS011;69540;42.136;24.742;2024-03-06T07:56:03;5.30;;;4.88;;
80229;SDS011;69540;42.136;24.742;2024-03-06T07:58:29;6.80;;;5.50;;
80229;SDS011;69540;42.136;24.742;2024-03-06T08:00:56;5.90;;;5.32;;
80229;SDS011;69540;42.136;24.742;2024-03-06T08:03:24;7.10;;;5.43;;
80229;SDS011;69540;42.136;24.742;2024-03-06T08:05:53;7.38;;;5.60;;
80229;SDS011;69540;42.136;24.742;2024-03-06T08:08:19;6.45;;;5.10;;
80229;SDS011;69540;42.136;24.742;2024-03-06T08:10:45;7.32;;;5.82;;
80229;SDS011;69540;42.136;24.742;2024-03-06T08:13:11;6.75;;;5.72;;
80229;SDS011;69540;42.136;24.742;2024-03-06T08:15:37;6.32;;;5.55;;
80229;SDS011;69540;42.136;24.742;2024-03-06T08:18:02;5.53;;;4.85;;
80229;SDS011;69540;42.136;24.742;2024-03-06T08:20:28;7.40;;;4.85;;
80229;SDS011;69540;42.136;24.742;2024-03-06T08:22:54;6.47;;;5.13;;
80229;SDS011;69540;42.136;24.742;2024-03-06T08:25:21;6.85;;;5.82;;
80229;SDS011;69540;42.136;24.742;2024-03-06T08:27:47;6.68;;;6.07;;
80229;SDS011;69540;42.136;24.742;2024-03-06T08:30:13;7.88;;;6.28;;
80229;SDS011;69540;42.136;24.742;2024-03-06T08:32:39;5.93;;;5.32;;
80229;SDS011;69540;42.136;24.742;2024-03-06T08:35:05;5.88;;;5.20;;
80229;SDS011;69540;42.136;24.742;2024-03-06T08:37:39;5.88;;;5.32;;
80229;SDS011;69540;42.136;24.742;2024-03-06T08:40:09;5.80;;;5.28;;
80229;SDS011;69540;42.136;24.742;2024-03-06T08:42:42;5.82;;;4.80;;
80229;SDS011;69540;42.136;24.742;2024-03-06T08:45:08;5.55;;;5.00;;
80229;SDS011;69540;42.136;24.742;2024-03-06T08:47:34;8.10;;;4.78;;
80229;SDS011;69540;42.136;24.742;2024-03-06T08:50:01;5.70;;;4.15;;
80229;SDS011;69540;42.136;24.742;2024-03-06T08:52:27;4.72;;;4.25;;
80229;SDS011;69540;42.136;24.742;2024-03-06T08:54:53;4.72;;;4.28;;
80229;SDS011;69540;42.136;24.742;2024-03-06T08:57:19;6.60;;;4.43;;
80229;SDS011;69540;42.136;24.742;2024-03-06T08:59:48;6.13;;;4.20;;
80229;SDS011;69540;42.136;24.742;2024-03-06T09:02:17;7.28;;;4.72;;
80229;SDS011;69540;42.136;24.742;2024-03-06T09:04:44;4.95;;;4.45;;
80229;SDS011;69540;42.136;24.742;2024-03-06T09:07:11;5.20;;;4.70;;
80229;SDS011;69540;42.136;24.742;2024-03-06T09:09:37;5.85;;;4.55;;
80229;SDS011;69540;42.136;24.742;2024-03-06T09:12:07;4.43;;;4.03;;
80229;SDS011;69540;42.136;24.742;2024-03-06T09:14:35;4.70;;;4.30;;
80229;SDS011;69540;42.136;24.742;2024-03-06T09:17:05;4.75;;;4.35;;
80229;SDS011;69540;42.136;24.742;2024-03-06T09:19:31;5.88;;;4.65;;
80229;SDS011;69540;42.136;24.742;2024-03-06T09:21:58;5.45;;;4.75;;
80229;SDS011;69540;42.136;24.742;2024-03-06T09:24:24;5.78;;;5.20;;
80229;SDS011;69540;42.136;24.742;2024-03-06T09:26:50;6.72;;;4.95;;
80229;SDS011;69540;42.136;24.742;2024-03-06T09:29:17;5.00;;;4.50;;
80229;SDS011;69540;42.136;24.742;2024-03-06T09:31:43;7.00;;;5.05;;
80229;SDS011;69540;42.136;24.742;2024-03-06T09:34:09;6.68;;;5.20;;
80229;SDS011;69540;42.136;24.742;2024-03-06T09:36:37;5.32;;;4.82;;
80229;SDS011;69540;42.136;24.742;2024-03-06T09:39:10;5.40;;;4.90;;
80229;SDS011;69540;42.136;24.742;2024-03-06T09:41:37;6.25;;;5.35;;
80229;SDS011;69540;42.136;24.742;2024-03-06T09:44:06;5.50;;;4.70;;
80229;SDS011;69540;42.136;24.742;2024-03-06T09:46:32;6.50;;;5.32;;
80229;SDS011;69540;42.136;24.742;2024-03-06T09:48:59;7.32;;;5.32;;
80229;SDS011;69540;42.136;24.742;2024-03-06T09:51:26;7.18;;;5.55;;
80229;SDS011;69540;42.136;24.742;2024-03-06T09:53:53;5.45;;;4.70;;
80229;SDS011;69540;42.136;24.742;2024-03-06T09:56:19;6.00;;;5.40;;
80229;SDS011;69540;42.136;24.742;2024-03-06T09:58:45;6.88;;;5.53;;
80229;SDS011;69540;42.136;24.742;2024-03-06T10:01:12;8.07;;;5.00;;
80229;SDS011;69540;42.136;24.742;2024-03-06T10:03:39;5.88;;;5.28;;
80229;SDS011;69540;42.136;24.742;2024-03-06T10:06:06;6.82;;;4.78;;
80229;SDS011;69540;42.136;24.742;2024-03-06T10:08:33;5.88;;;5.20;;
80229;SDS011;69540;42.136;24.742;2024-03-06T10:10:59;5.80;;;4.65;;
80229;SDS011;69540;42.136;24.742;2024-03-06T10:13:25;6.68;;;4.65;;
80229;SDS011;69540;42.136;24.742;2024-03-06T10:18:29;5.57;;;4.35;;
80229;SDS011;69540;42.136;24.742;2024-03-06T10:20:56;6.80;;;4.72;;
80229;SDS011;69540;42.136;24.742;2024-03-06T10:23:23;5.53;;;3.97;;
80229;SDS011;69540;42.136;24.742;2024-03-06T10:25:49;5.05;;;4.30;;
80229;SDS011;69540;42.136;24.742;2024-03-06T10:28:17;7.80;;;5.15;;
80229;SDS011;69540;42.136;24.742;2024-03-06T10:30:44;7.75;;;4.68;;
80229;SDS011;69540;42.136;24.742;2024-03-06T10:33:14;5.00;;;4.43;;
80229;SDS011;69540;42.136;24.742;2024-03-06T10:35:42;5.82;;;4.13;;
80229;SDS011;69540;42.136;24.742;2024-03-06T10:38:09;6.80;;;4.85;;
80229;SDS011;69540;42.136;24.742;2024-03-06T10:40:39;5.07;;;4.57;;
80229;SDS011;69540;42.136;24.742;2024-03-06T10:43:06;4.63;;;4.22;;
80229;SDS011;69540;42.136;24.742;2024-03-06T10:48:07;6.28;;;3.97;;
80229;SDS011;69540;42.136;24.742;2024-03-06T10:50:36;4.25;;;3.80;;
80229;SDS011;69540;42.136;24.742;2024-03-06T10:53:07;5.82;;;4.28;;
80229;SDS011;69540;42.136;24.742;2024-03-06T10:55:35;5.03;;;4.32;;
80229;SDS011;69540;42.136;24.742;2024-03-06T10:58:01;5.15;;;4.65;;
80229;SDS011;69540;42.136;24.742;2024-03-06T11:00:33;5.55;;;4.38;;
80229;SDS011;69540;42.136;24.742;2024-03-06T11:03:06;4.95;;;4.10;;
80229;SDS011;69540;42.136;24.742;2024-03-06T11:05:36;4.78;;;3.97;;
80229;SDS011;69540;42.136;24.742;2024-03-06T11:08:11;5.50;;;4.30;;
80229;SDS011;69540;42.136;24.742;2024-03-06T11:10:38;4.03;;;3.58;;
80229;SDS011;69540;42.136;24.742;2024-03-06T11:13:23;6.18;;;3.88;;
80229;SDS011;69540;42.136;24.742;2024-03-06T11:15:51;4.03;;;3.58;;
80229;SDS011;69540;42.136;24.742;2024-03-06T11:20:59;6.00;;;3.55;;
80229;SDS011;69540;42.136;24.742;2024-03-06T11:23:28;3.88;;;3.47;;
80229;SDS011;69540;42.136;24.742;2024-03-06T11:28:24;4.07;;;3.67;;
80229;SDS011;69540;42.136;24.742;2024-03-06T11:31:04;4.95;;;3.72;;
80229;SDS011;69540;42.136;24.742;2024-03-06T11:33:34;4.25;;;3.45;;
80229;SDS011;69540;42.136;24.742;2024-03-06T11:41:23;4.78;;;3.65;;
80229;SDS011;69540;42.136;24.742;2024-03-06T11:43:51;5.50;;;3.75;;
80229;SDS011;69540;42.136;24.742;2024-03-06T11:46:26;5.38;;;4.20;;
80229;SDS011;69540;42.136;24.742;2024-03-06T11:49:18;5.38;;;3.45;;
80229;SDS011;69540;42.136;24.742;2024-03-06T11:51:52;3.92;;;3.53;;
80229;SDS011;69540;42.136;24.742;2024-03-06T11:54:18;4.50;;;3.90;;
80229;SDS011;69540;42.136;24.742;2024-03-06T11:56:54;4.15;;;3.72;;
80229;SDS011;69540;42.136;24.742;2024-03-06T11:59:25;5.80;;;4.20;;
80229;SDS011;69540;42.136;24.742;2024-03-06T12:01:55;6.68;;;4.18;;
80229;SDS011;69540;42.136;24.742;2024-03-06T12:04:23;4.68;;;4.00;;
80229;SDS011;69540;42.136;24.742;2024-03-06T12:06:50;10.18;;;6.93;;
80229;SDS011;69540;42.136;24.742;2024-03-06T12:09:16;9.77;;;6.78;;
80229;SDS011;69540;42.136;24.742;2024-03-06T12:11:42;10.23;;;8.05;;
80229;SDS011;69540;42.136;24.742;2024-03-06T12:14:12;10.05;;;8.13;;
80229;SDS011;69540;42.136;24.742;2024-03-06T12:16:57;11.52;;;8.18;;
80229;SDS011;69540;42.136;24.742;2024-03-06T12:19:27;10.38;;;7.72;;
80229;SDS011;69540;42.136;24.742;2024-03-06T12:21:59;8.70;;;6.93;;
80229;SDS011;69540;42.136;24.742;2024-03-06T12:24:25;8.50;;;7.50;;
80229;SDS011;69540;42.136;24.742;2024-03-06T12:27:00;11.65;;;7.97;;
80229;SDS011;69540;42.136;24.742;2024-03-06T12:29:28;11.77;;;8.20;;
80229;SDS011;69540;42.136;24.742;2024-03-06T12:32:01;8.50;;;7.60;;
80229;SDS011;69540;42.136;24.742;2024-03-06T12:34:28;12.00;;;8.90;;
80229;SDS011;69540;42.136;24.742;2024-03-06T12:36:55;9.38;;;7.97;;
80229;SDS011;69540;42.136;24.742;2024-03-06T12:39:21;10.50;;;8.18;;
80229;SDS011;69540;42.136;24.742;2024-03-06T12:41:51;11.57;;;8.98;;
80229;SDS011;69540;42.136;24.742;2024-03-06T12:44:19;10.18;;;8.38;;
80229;SDS011;69540;42.136;24.742;2024-03-06T12:46:45;9.63;;;7.68;;
80229;SDS011;69540;42.136;24.742;2024-03-06T12:49:11;9.25;;;8.20;;
80229;SDS011;69540;42.136;24.742;2024-03-06T12:51:37;10.18;;;8.20;;
80229;SDS011;69540;42.136;24.742;2024-03-06T12:54:02;10.00;;;8.18;;
80229;SDS011;69540;42.136;24.742;2024-03-06T12:56:28;8.95;;;7.80;;
80229;SDS011;69540;42.136;24.742;2024-03-06T12:58:54;9.95;;;7.63;;
80229;SDS011;69540;42.136;24.742;2024-03-06T13:01:20;8.95;;;7.40;;
80229;SDS011;69540;42.136;24.742;2024-03-06T13:03:46;9.25;;;7.88;;
80229;SDS011;69540;42.136;24.742;2024-03-06T13:06:11;13.07;;;8.65;;
80229;SDS011;69540;42.136;24.742;2024-03-06T13:08:37;9.30;;;8.30;;
80229;SDS011;69540;42.136;24.742;2024-03-06T13:11:03;12.05;;;8.40;;
80229;SDS011;69540;42.136;24.742;2024-03-06T13:13:28;9.10;;;7.80;;
80229;SDS011;69540;42.136;24.742;2024-03-06T13:15:57;10.88;;;8.75;;
80229;SDS011;69540;42.136;24.742;2024-03-06T13:18:23;8.85;;;7.95;;
80229;SDS011;69540;42.136;24.742;2024-03-06T13:20:50;13.68;;;8.68;;
80229;SDS011;69540;42.136;24.742;2024-03-06T13:23:16;8.93;;;7.93;;
80229;SDS011;69540;42.136;24.742;2024-03-06T13:25:42;11.52;;;8.10;;
80229;SDS011;69540;42.136;24.742;2024-03-06T13:28:08;11.85;;;8.23;;
80229;SDS011;69540;42.136;24.742;2024-03-06T13:30:34;14.23;;;9.02;;
80229;SDS011;69540;42.136;24.742;2024-03-06T13:33:00;11.20;;;8.60;;
80229;SDS011;69540;42.136;24.742;2024-03-06T13:35:26;10.27;;;8.15;;
80229;SDS011;69540;42.136;24.742;2024-03-06T13:37:53;9.88;;;8.00;;
80229;SDS011;69540;42.136;24.742;2024-03-06T13:40:19;9.80;;;7.95;;
80229;SDS011;69540;42.136;24.742;2024-03-06T13:42:45;11.15;;;8.80;;
80229;SDS011;69540;42.136;24.742;2024-03-06T13:45:11;10.63;;;8.88;;
80229;SDS011;69540;42.136;24.742;2024-03-06T13:47:43;9.98;;;8.63;;
80229;SDS011;69540;42.136;24.742;2024-03-06T13:50:13;8.63;;;7.32;;
80229;SDS011;69540;42.136;24.742;2024-03-06T13:52:40;7.80;;;6.93;;
80229;SDS011;69540;42.136;24.742;2024-03-06T13:55:06;10.40;;;7.10;;
80229;SDS011;69540;42.136;24.742;2024-03-06T13:57:36;8.95;;;7.22;;
80229;SDS011;69540;42.136;24.742;2024-03-06T14:00:04;10.40;;;8.45;;
80229;SDS011;69540;42.136;24.742;2024-03-06T14:02:45;10.23;;;7.63;;
80229;SDS011;69540;42.136;24.742;2024-03-06T14:05:12;9.57;;;7.65;;
80229;SDS011;69540;42.136;24.742;2024-03-06T14:07:39;9.30;;;7.55;;
80229;SDS011;69540;42.136;24.742;2024-03-06T14:10:05;9.18;;;7.10;;
80229;SDS011;69540;42.136;24.742;2024-03-06T14:12:33;9.15;;;7.43;;
80229;SDS011;69540;42.136;24.742;2024-03-06T14:15:00;11.02;;;7.85;;
80229;SDS011;69540;42.136;24.742;2024-03-06T14:17:26;9.23;;;7.53;;
80229;SDS011;69540;42.136;24.742;2024-03-06T14:19:52;11.18;;;7.68;;
80229;SDS011;69540;42.136;24.742;2024-03-06T14:22:17;10.05;;;7.72;;
80229;SDS011;69540;42.136;24.742;2024-03-06T14:24:43;9.15;;;7.22;;
80229;SDS011;69540;42.136;24.742;2024-03-06T14:27:09;9.82;;;6.95;;
80229;SDS011;69540;42.136;24.742;2024-03-06T14:29:35;8.65;;;7.03;;
80229;SDS011;69540;42.136;24.742;2024-03-06T14:32:00;9.65;;;7.30;;
80229;SDS011;69540;42.136;24.742;2024-03-06T14:34:26;10.35;;;6.95;;
80229;SDS011;69540;42.136;24.742;2024-03-06T14:36:52;8.55;;;6.53;;